Sugarbush Valley, Vermont
Current Conditions -  °F | °C
As of 8:55 PM on Saturday 22 Nov 2014 (Local Time) from K6B0 Reporting Station
Overcast Overcast  
Wind Chill:   Ceiling: 2900
Heat Index:   Visibility: 10mi
Dew Point: -7°   Wind: 14mph
Humidity: 47%   Direction: 180°S
Pressure: 30"   Gusts: 21mph
Location:  44.1108°N, 72.8612°W
Report Text: K6B0 230155Z AUTO 18012G18KT 10SM OVC029 04/M06 A3000 RMK AO2 T00401065
Loading
Personal Weather Stations






























Interactive Weather Map New forecast layout! Learn more

10-Day Weather Forecast

Advertisements
Track Severe Weather on mobile